Time;durP1;ratioP1;P1;durP2;ratioP2;P2;SDS_P1;SDS_P2;PMS_P1;PMS_P2;Temp;Humidity;BMP_temperature;BMP_pressure;BME280_temperature;BME280_humidity;BME280_pressure;Samples;Min_cycle;Max_cycle;Signal;HPM_P1;HPM_P2
2023/01/28 00:01:18;;;;;;;34.50;20.30;;;;;;;0.89;89.54;101220.98;107471;1258;88738;-54
2023/01/28 00:03:59;;;;;;;37.40;21.20;;;;;;;0.93;89.57;101226.55;107434;1260;93052;-54
2023/01/28 00:06:40;;;;;;;35.10;21.30;;;;;;;0.99;89.51;101227.40;107419;1259;79751;-57
2023/01/28 00:09:19;;;;;;;39.30;21.30;;;;;;;1.00;89.59;101223.94;107422;1254;81217;-57
2023/01/28 00:11:55;;;;;;;35.20;20.40;;;;;;;0.98;89.59;101224.80;107440;1260;98442;-56
2023/01/28 00:14:35;;;;;;;38.10;21.40;;;;;;;0.97;89.61;101225.58;107385;1260;89081;-56
2023/01/28 00:17:07;;;;;;;33.90;20.80;;;;;;;1.00;89.52;101224.63;107417;1259;93847;-58
2023/01/28 00:19:39;;;;;;;38.70;22.10;;;;;;;0.97;89.55;101224.48;107428;1260;79502;-56
2023/01/28 00:22:14;;;;;;;34.00;20.70;;;;;;;0.98;89.55;101219.63;107432;1258;81915;-55
2023/01/28 00:24:51;;;;;;;33.40;19.90;;;;;;;0.96;89.48;101217.27;107471;1259;98453;-55
2023/01/28 00:27:33;;;;;;;33.70;19.70;;;;;;;0.95;89.53;101220.58;107444;1259;88042;-56
2023/01/28 00:30:10;;;;;;;30.90;19.10;;;;;;;0.93;89.56;101215.20;107446;1259;94718;-57
2023/01/28 00:32:52;;;;;;;30.30;18.30;;;;;;;0.98;89.51;101222.10;107434;1254;81447;-57
2023/01/28 00:35:36;;;;;;;29.90;17.60;;;;;;;0.98;89.64;101226.23;107397;1255;81827;-55
2023/01/28 00:38:15;;;;;;;28.10;18.30;;;;;;;0.98;89.56;101223.35;107434;1259;99338;-55
2023/01/28 00:40:53;;;;;;;32.40;19.10;;;;;;;0.95;89.73;101224.45;107435;1254;88065;-57
2023/01/28 00:43:30;;;;;;;28.90;17.90;;;;;;;0.98;89.73;101224.05;107397;1259;94159;-57
2023/01/28 00:46:07;;;;;;;30.30;18.20;;;;;;;1.01;89.41;101222.44;107445;1258;80912;-57
2023/01/28 00:48:49;;;;;;;30.30;19.30;;;;;;;1.01;89.45;101221.03;107419;1254;81373;-57
2023/01/28 00:51:29;;;;;;;29.70;18.00;;;;;;;0.98;89.44;101223.34;107371;1260;98512;-54
2023/01/28 00:54:02;;;;;;;32.10;19.20;;;;;;;0.99;89.48;101225.27;107412;1254;88145;-54
2023/01/28 00:56:38;;;;;;;28.50;17.80;;;;;;;0.99;89.41;101224.16;107251;1260;91518;-55
2023/01/28 00:59:17;;;;;;;30.60;17.60;;;;;;;1.01;89.50;101216.06;107392;1254;82103;-54
2023/01/28 01:02:11;;;;;;;27.00;17.30;;;;;;;1.00;89.51;101219.49;107409;1259;83066;-58
2023/01/28 01:05:00;;;;;;;;;;;;;;;0.99;89.62;101218.86;107425;1259;99512;-54
2023/01/28 01:07:40;;;;;;;27.80;16.70;;;;;;;0.95;89.69;101216.09;107414;1259;88686;-54
2023/01/28 01:10:19;;;;;;;28.20;16.90;;;;;;;0.96;89.81;101217.31;107416;1254;95513;-58
2023/01/28 01:13:02;;;;;;;27.00;17.10;;;;;;;0.96;89.73;101216.63;107406;1259;79972;-56
2023/01/28 01:15:44;;;;;;;29.50;16.50;;;;;;;0.96;89.75;101216.96;107267;1254;83123;-57
2023/01/28 01:18:17;;;;;;;26.50;16.60;;;;;;;0.93;89.72;101216.64;107490;1255;97473;-57
2023/01/28 01:20:57;;;;;;;29.80;17.90;;;;;;;0.92;89.80;101214.37;107474;1254;87933;-56
2023/01/28 01:23:32;;;;;;;28.30;17.50;;;;;;;0.94;89.69;101215.33;107390;1254;95148;-56
2023/01/28 01:26:10;;;;;;;30.60;17.70;;;;;;;0.95;89.76;101211.55;107408;1259;81780;-56
2023/01/28 01:28:46;;;;;;;25.60;16.50;;;;;;;0.95;89.66;101211.88;107361;1254;82463;-56
2023/01/28 01:31:26;;;;;;;26.50;16.20;;;;;;;0.98;89.75;101214.85;107379;1254;99838;-54
2023/01/28 01:34:05;;;;;;;25.70;17.00;;;;;;;1.00;89.82;101210.81;107379;1254;88535;-54
2023/01/28 01:36:42;;;;;;;23.90;16.10;;;;;;;1.01;89.77;101210.05;107375;1258;95989;-54
2023/01/28 01:39:28;;;;;;;23.80;15.70;;;;;;;1.01;89.88;101210.87;107395;1254;79639;-53
2023/01/28 01:42:05;;;;;;;23.40;15.40;;;;;;;1.06;89.82;101212.86;107426;1259;82533;-57
2023/01/28 01:45:03;;;;;;;21.20;14.50;;;;;;;1.04;89.91;101214.21;107429;1254;99558;-56
2023/01/28 01:47:46;;;;;;;23.80;14.90;;;;;;;0.95;89.94;101213.96;107406;1254;87513;-57
2023/01/28 01:50:31;;;;;;;25.20;16.40;;;;;;;0.98;89.82;101210.27;107408;1259;95653;-57
2023/01/28 01:53:16;;;;;;;23.40;15.10;;;;;;;0.98;89.78;101212.75;107401;1254;81337;-57
2023/01/28 01:56:00;;;;;;;25.00;14.70;;;;;;;0.98;89.67;101213.23;107426;1254;80705;-55
2023/01/28 01:58:36;;;;;;;22.90;14.60;;;;;;;0.94;89.87;101215.65;107373;1254;98798;-54
2023/01/28 02:01:11;;;;;;;22.40;14.60;;;;;;;0.93;89.83;101214.30;107424;1254;89585;-57
2023/01/28 02:03:55;;;;;;;22.50;14.90;;;;;;;0.94;89.89;101215.84;107379;1254;94084;-56
2023/01/28 02:06:34;;;;;;;20.60;14.00;;;;;;;0.95;89.83;101213.82;107439;1254;80714;-56
2023/01/28 02:09:23;;;;;;;25.30;15.00;;;;;;;0.97;89.85;101215.27;107455;1260;83196;-55
2023/01/28 02:12:00;;;;;;;21.60;14.10;;;;;;;1.02;89.89;101217.19;107494;1254;99457;-54
2023/01/28 02:14:41;;;;;;;24.50;14.80;;;;;;;0.98;89.91;101219.98;107422;1258;87217;-54
2023/01/28 02:17:22;;;;;;;21.80;13.90;;;;;;;0.96;89.90;101216.27;107404;1259;95528;-57
2023/01/28 02:20:01;;;;;;;21.30;14.90;;;;;;;0.96;89.90;101217.49;107405;1258;80983;-54
2023/01/28 02:23:11;;;;;;;23.60;14.80;;;;;;;0.94;89.89;101218.48;107390;1259;82986;-54
2023/01/28 02:26:19;;;;;;;23.10;14.90;;;;;;;0.93;89.91;101218.78;107385;1254;98910;-54
2023/01/28 02:29:04;;;;;;;22.70;15.10;;;;;;;0.93;89.90;101218.55;107374;1254;89267;-55
2023/01/28 02:31:49;;;;;;;21.20;15.10;;;;;;;0.97;89.86;101225.75;107408;1258;94818;-55
2023/01/28 02:34:35;;;;;;;21.30;14.30;;;;;;;0.93;89.98;101225.13;107391;1254;80055;-54
2023/01/28 02:37:19;;;;;;;24.20;14.50;;;;;;;0.95;90.08;101230.52;107376;1254;82726;-56
2023/01/28 02:40:05;;;;;;;16.20;10.80;;;;;;;0.95;90.00;101224.48;107411;1258;99672;-54
2023/01/28 02:42:40;;;;;;;21.60;14.20;;;;;;;0.95;90.17;101222.86;107413;1254;88450;-55
2023/01/28 02:47:56;;;;;;;20.60;13.70;;;;;;;0.96;89.98;101222.44;107432;1254;95689;-56
2023/01/28 02:48:23;;;;;;;22.50;13.90;;;;;;;1.01;89.89;101224.75;107393;1254;77897;-57
2023/01/28 02:51:12;;;;;;;22.30;13.50;;;;;;;1.02;89.87;101226.77;107425;1260;82011;-54
2023/01/28 02:53:57;;;;;;;20.90;14.40;;;;;;;0.99;89.98;101221.01;107438;1260;98095;-54
2023/01/28 02:56:47;;;;;;;21.00;13.40;;;;;;;0.94;89.91;101224.52;107455;1254;88494;-58
2023/01/28 02:59:34;;;;;;;19.90;12.90;;;;;;;0.94;90.07;101226.31;107415;1254;95682;-57
2023/01/28 03:02:20;;;;;;;20.40;12.50;;;;;;;0.90;90.21;101229.27;107427;1260;81191;-53
2023/01/28 03:05:05;;;;;;;21.70;13.70;;;;;;;0.94;90.11;101229.48;107417;1254;82118;-56
2023/01/28 03:07:49;;;;;;;20.80;12.90;;;;;;;0.95;90.04;101228.23;107377;1254;99919;-56
2023/01/28 03:10:31;;;;;;;20.10;13.90;;;;;;;0.98;90.09;101227.63;107429;1254;87648;-55
2023/01/28 03:36:48;;;;;;;20.30;12.90;;;;;;;1.00;90.20;101228.92;107435;1255;100099;-54
2023/01/28 03:39:30;;;;;;;23.40;14.40;;;;;;;0.98;90.17;101225.98;107389;1254;88556;-53
2023/01/28 03:42:06;;;;;;;22.90;13.90;;;;;;;1.02;90.17;101227.16;107376;1254;95767;-56
2023/01/28 03:44:50;;;;;;;21.90;14.10;;;;;;;1.04;90.18;101228.21;107410;1254;79705;-56
2023/01/28 03:47:26;;;;;;;20.40;12.60;;;;;;;1.10;90.16;101229.78;107023;1254;496043;-56
2023/01/28 03:50:06;;;;;;;23.30;14.30;;;;;;;1.08;90.20;101237.70;107431;1254;99595;-56
2023/01/28 03:52:47;;;;;;;23.20;13.50;;;;;;;1.04;90.53;101231.59;107421;1254;89079;-56
2023/01/28 03:55:26;;;;;;;23.30;14.50;;;;;;;1.02;90.32;101229.27;107401;1257;94745;-57
2023/01/28 03:58:07;;;;;;;25.70;14.80;;;;;;;1.00;90.22;101230.81;107383;1254;79738;-57
2023/01/28 04:00:46;;;;;;;24.60;14.50;;;;;;;0.98;90.32;101228.16;107416;1254;81386;-58
2023/01/28 04:03:26;;;;;;;25.70;15.70;;;;;;;1.02;90.13;101228.43;107362;1254;98143;-58
2023/01/28 04:06:02;;;;;;;25.80;16.40;;;;;;;1.03;90.16;101232.58;107396;1254;87418;-54
2023/01/28 04:08:36;;;;;;;22.00;14.20;;;;;;;1.02;90.32;101232.98;107351;1258;93175;-54
2023/01/28 04:11:15;;;;;;;22.90;14.30;;;;;;;1.04;90.38;101231.99;107398;1254;80380;-56
2023/01/28 04:13:53;;;;;;;23.80;15.10;;;;;;;1.02;90.47;101233.16;107427;1254;81823;-56
2023/01/28 04:16:29;;;;;;;22.80;13.80;;;;;;;1.05;90.31;101228.52;107428;1254;98423;-57
2023/01/28 04:19:07;;;;;;;22.90;14.40;;;;;;;1.08;90.31;101231.73;107376;1254;89487;-58
2023/01/28 04:21:46;;;;;;;22.30;14.20;;;;;;;1.06;90.37;101229.36;107330;1254;93919;-55
2023/01/28 04:24:24;;;;;;;23.60;14.90;;;;;;;1.07;90.17;101226.96;107358;1257;81824;-54
2023/01/28 04:27:05;;;;;;;23.30;14.20;;;;;;;1.05;90.09;101223.21;107347;1259;83197;-56
2023/01/28 04:29:38;;;;;;;24.10;14.00;;;;;;;0.99;90.00;101225.55;107355;1256;99412;-55
2023/01/28 04:32:17;;;;;;;21.90;13.40;;;;;;;0.95;90.06;101233.33;107347;1257;88214;-58
2023/01/28 04:34:55;;;;;;;24.90;14.40;;;;;;;0.96;90.19;101234.16;107365;1258;95135;-56
2023/01/28 04:37:36;;;;;;;23.70;14.10;;;;;;;0.97;90.13;101237.29;107331;1257;80778;-57
2023/01/28 04:40:11;;;;;;;22.50;13.30;;;;;;;0.95;90.24;101237.44;107403;1257;81333;-57
2023/01/28 04:42:54;;;;;;;22.90;13.20;;;;;;;0.97;90.29;101235.15;107355;1259;97017;-56
2023/01/28 04:45:30;;;;;;;20.60;12.80;;;;;;;1.01;90.29;101233.44;107363;1259;87831;-55
2023/01/28 04:48:06;;;;;;;22.30;13.50;;;;;;;1.01;90.19;101233.65;107328;1255;96133;-55
2023/01/28 04:50:44;;;;;;;19.30;11.10;;;;;;;1.00;90.23;101233.31;107379;1255;77578;-57
2023/01/28 04:53:26;;;;;;;23.60;13.50;;;;;;;0.98;90.33;101236.84;107339;1259;81929;-58
2023/01/28 04:56:06;;;;;;;22.90;14.30;;;;;;;0.96;90.31;101240.67;107343;1257;99610;-57
2023/01/28 04:58:47;;;;;;;20.80;13.40;;;;;;;0.97;90.14;101245.56;107349;1256;89263;-57
2023/01/28 05:01:28;;;;;;;22.40;13.80;;;;;;;0.97;90.24;101246.34;107346;1259;94755;-55
2023/01/28 05:04:04;;;;;;;22.30;13.10;;;;;;;0.98;90.11;101247.65;107298;1257;81497;-54
2023/01/28 05:06:49;;;;;;;21.30;13.30;;;;;;;0.99;90.24;101246.73;107390;1256;82732;-55
2023/01/28 05:09:29;;;;;;;21.80;13.10;;;;;;;1.00;90.41;101244.89;107331;1256;97956;-56
2023/01/28 05:12:07;;;;;;;20.80;13.00;;;;;;;0.99;90.26;101247.63;107373;1256;88940;-59
2023/01/28 05:14:47;;;;;;;20.20;13.20;;;;;;;1.01;90.32;101248.70;107370;1256;93676;-56
2023/01/28 05:17:21;;;;;;;23.80;13.60;;;;;;;1.00;90.52;101246.77;107343;1256;79003;-57
2023/01/28 05:20:02;;;;;;;23.60;13.50;;;;;;;1.02;90.49;101244.39;107418;1256;82460;-56
2023/01/28 05:22:41;;;;;;;18.30;12.10;;;;;;;1.00;90.49;101246.45;107369;1256;98887;-56
2023/01/28 05:25:22;;;;;;;23.00;14.20;;;;;;;0.95;90.52;101246.25;107349;1256;86281;-54
2023/01/28 05:28:03;;;;;;;20.90;12.90;;;;;;;0.92;90.49;101250.57;107408;1256;92172;-55
2023/01/28 05:30:42;;;;;;;20.20;12.10;;;;;;;0.90;90.45;101249.14;107380;1256;79097;-53
2023/01/28 05:33:15;;;;;;;20.90;13.30;;;;;;;0.90;90.53;101248.23;107321;1256;83736;-54
2023/01/28 05:35:53;;;;;;;24.30;12.80;;;;;;;0.91;90.49;101252.38;107355;1259;99164;-56
2023/01/28 05:38:35;;;;;;;18.30;11.70;;;;;;;0.92;90.79;101251.99;107366;1257;87265;-56
2023/01/28 05:41:17;;;;;;;23.50;14.70;;;;;;;0.93;90.63;101253.85;107374;1256;94639;-54
2023/01/28 05:43:54;;;;;;;23.20;13.20;;;;;;;0.95;90.71;101252.45;107378;1256;78629;-53
2023/01/28 05:46:32;;;;;;;19.30;12.80;;;;;;;1.00;90.66;101254.44;107352;1257;83358;-57
2023/01/28 05:49:16;;;;;;;21.70;13.30;;;;;;;1.00;90.54;101259.22;107348;1259;99864;-57
2023/01/28 05:51:50;;;;;;;21.00;12.30;;;;;;;0.97;90.75;101262.64;107376;1255;89002;-56
2023/01/28 05:54:28;;;;;;;;;;;;;;;0.97;90.72;101259.81;107183;1256;95181;-56
2023/01/28 05:57:09;;;;;;;22.00;13.70;;;;;;;0.97;90.69;101261.36;107429;1257;79433;-56
2023/01/28 05:59:47;;;;;;;23.40;12.30;;;;;;;0.99;90.51;101264.40;107402;1257;82849;-53
2023/01/28 06:02:29;;;;;;;20.50;11.90;;;;;;;0.99;90.71;101261.63;107348;1256;98317;-56
2023/01/28 06:05:07;;;;;;;21.70;13.20;;;;;;;0.95;90.66;101263.27;107373;1256;90362;-54
2023/01/28 06:07:45;;;;;;;22.90;13.10;;;;;;;0.93;90.80;101265.22;107392;1255;95514;-54
2023/01/28 06:10:22;;;;;;;21.80;13.10;;;;;;;0.98;90.91;101268.08;107404;1256;80647;-57
2023/01/28 06:12:58;;;;;;;23.30;13.30;;;;;;;1.01;90.79;101268.91;107367;1256;81762;-57
2023/01/28 06:15:34;;;;;;;25.20;13.40;;;;;;;1.03;90.74;101272.12;107371;1257;99655;-56
2023/01/28 06:18:14;;;;;;;20.40;13.00;;;;;;;1.03;90.86;101274.05;107371;1257;88493;-57
2023/01/28 06:20:53;;;;;;;20.70;13.30;;;;;;;1.02;90.90;101278.04;107346;1256;94133;-54
2023/01/28 06:23:34;;;;;;;22.80;13.90;;;;;;;1.00;90.82;101279.27;107330;1257;80853;-54
2023/01/28 06:26:06;;;;;;;21.20;13.20;;;;;;;1.01;90.77;101282.20;107394;1256;81104;-56
2023/01/28 06:28:47;;;;;;;24.30;12.60;;;;;;;0.98;90.86;101281.52;107363;1257;99530;-57
2023/01/28 06:31:32;;;;;;;21.50;12.70;;;;;;;0.97;90.72;101284.08;107365;1259;88081;-57
2023/01/28 06:34:09;;;;;;;22.10;13.10;;;;;;;1.01;90.90;101284.86;107331;1256;95149;-57
2023/01/28 06:36:44;;;;;;;20.40;11.90;;;;;;;1.02;90.74;101282.48;107368;1259;81827;-54
2023/01/28 06:39:20;;;;;;;22.00;12.40;;;;;;;1.00;90.97;101280.67;107363;1256;82138;-55
2023/01/28 06:42:01;;;;;;;22.30;12.80;;;;;;;1.00;91.03;101282.44;107411;1258;99361;-54
2023/01/28 06:44:36;;;;;;;21.70;12.30;;;;;;;1.00;91.07;101288.09;107389;1256;89488;-56
2023/01/28 06:47:20;;;;;;;23.50;13.50;;;;;;;1.02;90.98;101289.73;107350;1258;94910;-54
2023/01/28 06:50:00;;;;;;;21.30;13.50;;;;;;;1.06;90.95;101291.58;107380;1256;80187;-56
2023/01/28 06:52:44;;;;;;;25.60;13.60;;;;;;;1.01;91.10;101289.98;107373;1256;82966;-56
2023/01/28 06:55:16;;;;;;;21.90;13.10;;;;;;;1.02;91.23;101293.10;107453;1257;99873;-53
2023/01/28 06:57:47;;;;;;;24.30;14.10;;;;;;;1.02;91.15;101294.02;107403;1256;88535;-54
2023/01/28 07:00:21;;;;;;;20.70;12.60;;;;;;;1.00;91.04;101304.48;107380;1256;94082;-57
2023/01/28 07:02:57;;;;;;;20.40;12.90;;;;;;;0.96;91.07;101303.64;107349;1256;81014;-57
2023/01/28 07:05:31;;;;;;;22.70;14.20;;;;;;;0.97;91.13;101302.70;107383;1255;82696;-57
2023/01/28 07:08:06;;;;;;;22.50;13.70;;;;;;;0.98;91.05;101307.96;107379;1259;99433;-56
2023/01/28 07:10:45;;;;;;;16.10;10.10;;;;;;;0.98;91.17;101306.71;107360;1259;86213;-53
2023/01/28 07:13:20;;;;;;;21.30;13.10;;;;;;;0.97;91.23;101309.83;107348;1256;94124;-53
2023/01/28 07:15:55;;;;;;;21.30;13.40;;;;;;;1.01;91.22;101305.79;107359;1256;80864;-56
2023/01/28 07:18:34;;;;;;;22.40;13.60;;;;;;;1.02;91.19;101306.79;107380;1255;81697;-58
2023/01/28 07:21:08;;;;;;;23.40;13.20;;;;;;;1.05;91.12;101308.51;107379;1257;99201;-55
2023/01/28 07:23:50;;;;;;;21.30;13.80;;;;;;;1.05;91.13;101313.66;107374;1256;89278;-56
2023/01/28 07:26:34;;;;;;;21.40;13.50;;;;;;;1.04;91.14;101310.67;107337;1259;95374;-57
2023/01/28 07:29:09;;;;;;;22.20;13.70;;;;;;;1.05;91.15;101311.88;107374;1256;79739;-55
2023/01/28 07:31:43;;;;;;;22.10;14.10;;;;;;;1.10;91.13;101312.62;107248;1256;82443;-56
2023/01/28 07:34:28;;;;;;;20.00;13.10;;;;;;;1.11;91.04;101317.30;107377;1256;99244;-56
2023/01/28 07:37:13;;;;;;;22.10;14.20;;;;;;;1.13;91.03;101317.91;107415;1257;87655;-56
2023/01/28 07:39:53;;;;;;;23.80;14.30;;;;;;;1.10;91.11;101321.64;107229;1256;94414;-54
2023/01/28 07:42:29;;;;;;;20.40;14.10;;;;;;;1.10;90.99;101323.98;107376;1256;81092;-54
2023/01/28 07:45:05;;;;;;;20.80;13.30;;;;;;;1.07;90.95;101327.35;107445;1255;81955;-56
2023/01/28 07:47:42;;;;;;;22.50;14.50;;;;;;;1.07;91.10;101327.16;107375;1256;97395;-57
2023/01/28 07:50:18;;;;;;;21.40;13.90;;;;;;;1.08;91.08;101329.39;107385;1256;88592;-56
2023/01/28 07:52:51;;;;;;;20.40;13.50;;;;;;;1.08;91.16;101332.59;107373;1255;93915;-56
2023/01/28 07:55:31;;;;;;;20.90;13.40;;;;;;;1.05;91.10;101333.89;107372;1255;80129;-57
2023/01/28 07:58:12;;;;;;;20.80;14.20;;;;;;;1.04;91.15;101331.14;107340;1256;82686;-55
2023/01/28 08:01:04;;;;;;;20.60;13.90;;;;;;;1.06;91.15;101329.57;107335;1256;99551;-56
2023/01/28 08:03:46;;;;;;;19.70;13.50;;;;;;;1.04;91.19;101328.14;107361;1256;89712;-54
2023/01/28 08:06:25;;;;;;;20.80;13.60;;;;;;;1.04;91.12;101328.08;107347;1256;94285;-55
2023/01/28 08:08:59;;;;;;;23.90;14.00;;;;;;;1.06;91.08;101324.95;107368;1256;81439;-55
2023/01/28 08:11:40;;;;;;;18.30;13.40;;;;;;;1.09;91.14;101323.50;107403;1256;82555;-55
2023/01/28 08:14:15;;;;;;;20.80;13.80;;;;;;;1.09;91.22;101324.52;107399;1256;97890;-54
2023/01/28 08:16:55;;;;;;;21.90;14.30;;;;;;;1.10;91.21;101317.71;107444;1259;89094;-56
2023/01/28 08:19:31;;;;;;;18.60;13.60;;;;;;;1.08;91.28;101323.17;107378;1256;95082;-57
2023/01/28 08:22:10;;;;;;;21.30;14.10;;;;;;;1.11;91.03;101323.73;107423;1256;79289;-54
2023/01/28 08:24:48;;;;;;;23.00;14.60;;;;;;;1.09;91.00;101324.00;107375;1259;82265;-56
2023/01/28 08:27:27;;;;;;;21.60;14.90;;;;;;;1.09;91.10;101322.23;107367;1257;99120;-56
2023/01/28 08:30:09;;;;;;;22.30;15.20;;;;;;;1.06;90.97;101326.34;107352;1256;88724;-54
2023/01/28 08:32:50;;;;;;;22.30;13.90;;;;;;;1.05;90.96;101323.75;107364;1256;94641;-54
2023/01/28 08:35:25;;;;;;;21.90;14.90;;;;;;;1.06;90.84;101319.61;107322;1255;79255;-55
2023/01/28 08:38:02;;;;;;;21.30;14.40;;;;;;;1.08;90.98;101322.18;107214;1260;82808;-55
2023/01/28 08:40:36;;;;;;;21.30;14.30;;;;;;;1.08;91.18;101317.17;107371;1256;100419;-57
2023/01/28 08:43:11;;;;;;;20.60;14.70;;;;;;;1.09;91.03;101316.39;107416;1259;88657;-57
2023/01/28 08:45:42;;;;;;;;;;;;;;;1.11;91.07;101322.81;107390;1256;95651;-57
2023/01/28 08:48:18;;;;;;;20.00;14.50;;;;;;;1.14;91.04;101321.52;107338;1256;79383;-58
2023/01/28 08:50:51;;;;;;;20.00;15.00;;;;;;;1.20;90.92;101321.30;107395;1256;82524;-56
2023/01/28 08:53:23;;;;;;;20.80;14.20;;;;;;;1.20;90.96;101322.20;107243;1256;98837;-57
2023/01/28 08:56:01;;;;;;;21.90;15.30;;;;;;;1.25;90.96;101323.47;107408;1257;88574;-54
2023/01/28 08:58:45;;;;;;;20.90;14.40;;;;;;;1.26;90.98;101321.58;107354;1257;96021;-54
2023/01/28 09:01:31;;;;;;;21.70;14.40;;;;;;;1.30;90.83;101329.12;107407;1256;80188;-56
2023/01/28 09:04:14;;;;;;;22.30;15.10;;;;;;;1.27;90.76;101327.95;107357;1256;83169;-56
2023/01/28 09:06:53;;;;;;;21.00;14.00;;;;;;;1.26;90.78;101332.42;107401;1256;99654;-57
2023/01/28 09:09:26;;;;;;;19.60;14.40;;;;;;;1.21;90.83;101338.83;107411;1256;88722;-57
2023/01/28 09:12:07;;;;;;;24.40;17.60;;;;;;;1.19;90.85;101343.73;107388;1256;94071;-54
2023/01/28 09:14:46;;;;;;;21.60;15.30;;;;;;;1.17;90.90;101347.63;107336;1256;80761;-54
2023/01/28 09:17:21;;;;;;;21.30;14.50;;;;;;;1.15;90.84;101349.66;107373;1256;81841;-54
2023/01/28 09:19:53;;;;;;;18.70;14.20;;;;;;;1.16;90.99;101350.48;107383;1256;99646;-55
2023/01/28 09:22:30;;;;;;;18.80;14.00;;;;;;;1.20;90.93;101352.86;107360;1256;87940;-54
2023/01/28 09:25:12;;;;;;;22.90;15.30;;;;;;;1.22;91.05;101355.05;107384;1256;94127;-55
2023/01/28 09:27:47;;;;;;;21.60;15.30;;;;;;;1.24;91.07;101355.59;107354;1256;80847;-54
2023/01/28 09:30:21;;;;;;;21.00;14.80;;;;;;;1.26;91.00;101348.20;107410;1256;80299;-55
2023/01/28 09:32:56;;;;;;;21.30;14.40;;;;;;;1.27;90.89;101355.95;107357;1256;99449;-55
2023/01/28 09:35:40;;;;;;;19.70;14.00;;;;;;;1.28;90.91;101356.42;107386;1256;88358;-55
2023/01/28 09:38:19;;;;;;;26.40;16.50;;;;;;;1.23;90.95;101355.14;107318;1255;96096;-57
2023/01/28 09:40:55;;;;;;;28.30;16.80;;;;;;;1.20;90.97;101351.98;107322;1255;81726;-53
2023/01/28 09:43:56;;;;;;;22.30;15.20;;;;;;;1.18;90.94;101353.40;107428;1255;82602;-55
2023/01/28 09:46:41;;;;;;;19.10;14.10;;;;;;;1.23;90.89;101350.95;107374;1256;97986;-54
2023/01/28 09:49:27;;;;;;;19.30;13.70;;;;;;;1.23;90.83;101353.03;107347;1255;87392;-53
2023/01/28 09:52:03;;;;;;;19.20;14.30;;;;;;;1.22;90.90;101349.36;107414;1256;92877;-55
2023/01/28 09:54:50;;;;;;;24.80;16.10;;;;;;;1.27;90.83;101353.13;107321;1257;81642;-55
2023/01/28 09:57:27;;;;;;;24.20;16.50;;;;;;;1.29;90.97;101357.77;107382;1255;83089;-57
2023/01/28 10:00:04;;;;;;;28.20;16.40;;;;;;;1.29;90.97;101357.59;107411;1258;99188;-54
2023/01/28 10:03:01;;;;;;;22.60;14.90;;;;;;;1.31;90.93;101348.36;107406;1256;87992;-55
2023/01/28 10:05:46;;;;;;;18.80;13.80;;;;;;;1.31;90.92;101347.85;107406;1256;93319;-56
2023/01/28 10:08:49;;;;;;;18.50;13.20;;;;;;;1.33;90.69;101349.32;107345;1256;79531;-57
2023/01/28 10:11:39;;;;;;;18.30;14.80;;;;;;;1.28;90.81;101342.94;107369;1256;82609;-57
2023/01/28 10:14:30;;;;;;;21.10;14.40;;;;;;;1.31;90.73;101342.02;107331;1256;99793;-55
2023/01/28 10:17:22;;;;;;;19.30;14.00;;;;;;;1.30;90.67;101337.95;107395;1256;87988;-56
2023/01/28 10:20:07;;;;;;;20.60;14.90;;;;;;;1.31;90.69;101341.33;107334;1259;95074;-55
2023/01/28 10:22:48;;;;;;;19.10;14.40;;;;;;;1.32;90.72;101341.26;107368;1255;80101;-53
2023/01/28 10:25:24;;;;;;;20.10;14.30;;;;;;;1.32;90.73;101341.71;107366;1256;81393;-53
2023/01/28 10:28:03;;;;;;;22.00;15.30;;;;;;;1.36;90.61;101341.48;107389;1259;98341;-53
2023/01/28 10:30:43;;;;;;;23.00;16.80;;;;;;;1.35;90.80;101332.15;107406;1256;86668;-55
2023/01/28 10:33:32;;;;;;;24.60;16.90;;;;;;;1.40;90.83;101329.13;107210;1255;94171;-54
2023/01/28 10:36:10;;;;;;;24.60;18.00;;;;;;;1.42;91.05;101331.09;107393;1256;79796;-55
2023/01/28 10:38:44;;;;;;;25.30;17.80;;;;;;;1.41;90.91;101331.71;107394;1256;84202;-56
2023/01/28 10:41:25;;;;;;;24.60;18.00;;;;;;;1.42;90.91;101326.66;107360;1259;98490;-58
2023/01/28 10:44:06;;;;;;;24.40;18.30;;;;;;;1.41;90.79;101322.98;107358;1258;88562;-54
2023/01/28 10:46:46;;;;;;;25.00;17.70;;;;;;;1.42;90.87;101325.93;107398;1255;94148;-56
2023/01/28 10:49:27;;;;;;;26.30;16.70;;;;;;;1.40;90.87;101321.99;107378;1256;78203;-57
2023/01/28 10:52:13;;;;;;;23.90;17.00;;;;;;;1.39;90.80;101321.55;107382;1258;82997;-54
2023/01/28 10:55:02;;;;;;;24.00;16.90;;;;;;;1.39;90.83;101324.94;107368;1256;99638;-55
2023/01/28 10:57:43;;;;;;;23.60;16.30;;;;;;;1.42;90.79;101327.74;107362;1258;88639;-56
2023/01/28 11:00:26;;;;;;;22.80;17.10;;;;;;;1.41;90.85;101323.89;107332;1256;94790;-56
2023/01/28 11:03:04;;;;;;;23.70;17.20;;;;;;;1.41;90.84;101322.48;107346;1256;80881;-55
2023/01/28 11:05:50;;;;;;;23.50;16.10;;;;;;;1.43;90.89;101323.05;107381;1259;80260;-54
2023/01/28 11:08:27;;;;;;;22.90;16.50;;;;;;;1.44;90.85;101320.98;107377;1256;99573;-53
2023/01/28 11:11:26;;;;;;;24.30;17.70;;;;;;;1.46;90.89;101318.16;107369;1256;87069;-58
2023/01/28 11:14:03;;;;;;;23.60;17.20;;;;;;;1.46;90.71;101317.88;107354;1256;93726;-55
2023/01/28 11:16:47;;;;;;;24.90;17.20;;;;;;;1.46;90.66;101313.44;107253;1256;80454;-55
2023/01/28 11:19:25;;;;;;;25.60;17.90;;;;;;;1.42;90.62;101315.84;107356;1259;80829;-60
2023/01/28 11:21:59;;;;;;;24.00;16.80;;;;;;;1.41;90.62;101312.53;107379;1257;98034;-60
2023/01/28 11:24:44;;;;;;;27.20;18.40;;;;;;;1.40;90.63;101311.53;107369;1256;89305;-58
2023/01/28 11:27:30;;;;;;;24.40;17.30;;;;;;;1.41;90.51;101306.35;107235;1261;94378;-53
2023/01/28 11:30:20;;;;;;;21.00;16.60;;;;;;;1.40;90.69;101310.09;107379;1255;84642;-57
2023/01/28 11:33:08;;;;;;;21.60;16.30;;;;;;;1.43;90.55;101304.56;107400;1256;81955;-57
2023/01/28 11:35:55;;;;;;;20.60;14.80;;;;;;;1.46;90.48;101305.10;107356;1259;97374;-56
2023/01/28 11:38:32;;;;;;;19.40;14.80;;;;;;;1.46;90.49;101300.62;107391;1256;86363;-58
2023/01/28 11:41:04;;;;;;;20.20;15.20;;;;;;;1.46;90.32;101294.78;107331;1257;94345;-58
2023/01/28 11:43:44;;;;;;;20.00;15.40;;;;;;;1.47;90.39;101297.00;107341;1256;79554;-58
2023/01/28 11:46:43;;;;;;;23.10;16.00;;;;;;;1.46;90.60;101299.02;106943;1256;560868;-57
2023/01/28 11:49:29;;;;;;;22.50;16.80;;;;;;;1.43;90.45;101297.84;107352;1256;97785;-55
2023/01/28 11:52:12;;;;;;;22.10;16.00;;;;;;;1.40;90.32;101298.44;107317;1259;89934;-56
2023/01/28 11:54:58;;;;;;;21.80;15.80;;;;;;;1.38;90.33;101295.34;107386;1256;94646;-54
2023/01/28 11:57:46;;;;;;;22.70;16.40;;;;;;;1.36;90.51;101292.27;107288;1255;81186;-53
2023/01/28 12:00:40;;;;;;;23.00;16.20;;;;;;;1.36;90.50;101296.02;107357;1256;82118;-57
2023/01/28 12:03:46;;;;;;;20.90;16.00;;;;;;;1.37;90.49;101294.23;107353;1255;100325;-56
2023/01/28 12:07:08;;;;;;;22.40;15.60;;;;;;;1.34;90.44;101295.45;107265;1256;88032;-55
2023/01/28 12:09:58;;;;;;;23.00;18.80;;;;;;;1.34;90.57;101296.55;107096;1259;95129;-55
2023/01/28 12:12:58;;;;;;;24.50;18.10;;;;;;;1.32;90.63;101293.84;107334;1256;79638;-53
2023/01/28 12:16:49;;;;;;;24.20;18.10;;;;;;;1.34;90.69;101292.12;107422;1256;82698;-54
2023/01/28 12:19:49;;;;;;;26.30;18.90;;;;;;;1.36;90.46;101296.20;107273;1258;99744;-54
2023/01/28 12:23:11;;;;;;;29.60;20.40;;;;;;;1.36;90.63;101295.32;107303;1256;88507;-57
2023/01/28 12:26:04;;;;;;;29.10;21.20;;;;;;;1.35;90.51;101287.42;107292;1256;93918;-53
2023/01/28 12:29:02;;;;;;;25.80;18.40;;;;;;;1.36;90.63;101290.86;107297;1256;79560;-54
2023/01/28 12:31:57;;;;;;;28.10;20.10;;;;;;;1.35;90.55;101289.57;107266;1256;82954;-56
2023/01/28 12:35:07;;;;;;;;;;;;;;;1.30;90.62;101286.92;107316;1259;97797;-58
2023/01/28 12:37:55;;;;;;;25.90;18.00;;;;;;;1.32;90.43;101287.65;107122;1257;89236;-56